Time;durP1;ratioP1;P1;durP2;ratioP2;P2;SDS_P1;SDS_P2;PMS_P1;PMS_P2;Temp;Humidity;BMP_temperature;BMP_pressure;BME280_temperature;BME280_humidity;BME280_pressure;Samples;Min_cycle;Max_cycle;Signal;HPM_P1;HPM_P2
2022/05/31 00:00:43;;;;;;;9.30;4.90;;;;;;;8.29;81.70;101201.03;6498463;23;20039;-81
2022/05/31 00:03:15;;;;;;;11.57;5.87;;;;;;;8.26;81.66;101197.53;6498128;23;20050;-83
2022/05/31 00:05:46;;;;;;;6.57;4.80;;;;;;;8.21;81.53;101201.00;6498374;23;20418;-81
2022/05/31 00:08:18;;;;;;;8.73;5.67;;;;;;;8.25;82.43;101198.41;6498358;23;20004;-81
2022/05/31 00:10:49;;;;;;;8.53;5.30;;;;;;;8.16;82.53;101196.63;6498823;23;20008;-83
2022/05/31 00:13:20;;;;;;;10.37;5.93;;;;;;;8.04;82.67;101194.88;6497952;23;20008;-81
2022/05/31 00:15:52;;;;;;;10.23;6.03;;;;;;;8.02;82.93;101187.06;6498712;23;20034;-80
2022/05/31 00:18:23;;;;;;;10.57;5.80;;;;;;;7.90;82.51;101184.41;6500597;23;20046;-82
2022/05/31 00:20:55;;;;;;;7.17;6.30;;;;;;;7.85;82.50;101188.72;6471172;23;20758;-79
2022/05/31 00:23:26;;;;;;;10.17;6.50;;;;;;;7.77;83.00;101193.84;6497349;23;20334;-79
2022/05/31 00:25:58;;;;;;;8.43;5.43;;;;;;;7.80;83.21;101193.03;6498341;23;20004;-82
2022/05/31 00:28:29;;;;;;;8.37;6.43;;;;;;;7.71;83.35;101196.44;6498796;23;20083;-82
2022/05/31 00:31:02;;;;;;;7.93;6.17;;;;;;;7.70;83.25;101196.44;6497764;23;20483;-80
2022/05/31 00:33:34;;;;;;;11.13;6.28;;;;;;;7.66;83.69;101199.00;6497705;23;20012;-81
2022/05/31 00:36:06;;;;;;;12.00;5.80;;;;;;;7.64;83.60;101189.47;6497820;23;20008;-78
2022/05/31 00:38:37;;;;;;;8.13;5.93;;;;;;;7.64;84.16;101203.31;6498212;23;20012;-81
2022/05/31 00:41:25;;;;;;;10.30;5.93;;;;;;;7.54;83.59;101195.47;6498020;23;20433;-82
2022/05/31 00:44:05;;;;;;;10.90;6.13;;;;;;;7.54;83.72;101198.06;6497549;23;20032;-82
2022/05/31 00:46:51;;;;;;;8.30;5.57;;;;;;;7.56;83.95;101199.78;6497796;23;20015;-83
2022/05/31 00:49:49;;;;;;;10.40;5.85;;;;;;;7.53;83.53;101206.69;6497819;23;20008;-82
2022/05/31 00:52:25;;;;;;;11.48;5.72;;;;;;;7.45;84.03;101196.25;6497996;23;20016;-82
2022/05/31 00:55:17;;;;;;;8.98;5.80;;;;;;;7.41;84.59;101204.91;6498279;23;20004;-83
2022/05/31 00:58:04;;;;;;;8.48;5.78;;;;;;;7.36;84.75;101194.50;6497993;23;20036;-81
2022/05/31 01:00:36;;;;;;;9.27;6.00;;;;;;;7.30;84.37;101199.63;6497135;23;20000;-82
2022/05/31 01:03:12;;;;;;;8.88;5.75;;;;;;;7.29;84.79;101196.19;6497204;23;20004;-80
2022/05/31 01:05:44;;;;;;;11.75;5.60;;;;;;;7.32;85.28;101192.72;6497071;23;20027;-79
2022/05/31 01:08:16;;;;;;;12.73;6.90;;;;;;;7.33;85.25;101198.78;6497219;23;20008;-81
2022/05/31 01:10:47;;;;;;;12.63;6.27;;;;;;;7.30;85.31;101197.88;6498079;23;20007;-81
2022/05/31 01:13:19;;;;;;;8.87;6.23;;;;;;;7.26;85.52;101187.47;6497723;23;20008;-79
2022/05/31 01:16:05;;;;;;;10.55;5.35;;;;;;;7.26;85.78;101188.38;6497196;23;20015;-80
2022/05/31 01:18:37;;;;;;;11.07;6.15;;;;;;;7.21;86.09;101187.47;6498105;23;20015;-81
2022/05/31 01:21:09;;;;;;;11.73;6.13;;;;;;;7.24;86.36;101181.44;6497648;23;20008;-80
2022/05/31 01:23:49;;;;;;;11.03;6.37;;;;;;;7.21;86.53;101189.19;6497288;23;20091;-82
2022/05/31 01:26:47;;;;;;;10.35;6.57;;;;;;;7.16;86.73;101178.78;6497681;23;20035;-78
2022/05/31 01:29:26;;;;;;;8.77;6.28;;;;;;;7.15;87.05;101178.75;6497053;23;20031;-80
2022/05/31 01:32:03;;;;;;;10.48;6.32;;;;;;;7.05;86.64;101173.53;6497212;23;20084;-82
2022/05/31 01:35:00;;;;;;;12.20;6.80;;;;;;;7.11;87.44;101175.28;6497296;23;20027;-81
2022/05/31 01:37:50;;;;;;;9.82;6.32;;;;;;;7.03;86.64;101182.13;6498180;23;20078;-82
2022/05/31 01:40:30;;;;;;;10.63;5.97;;;;;;;6.99;87.59;101173.47;6499460;23;20146;-82
2022/05/31 01:43:02;;;;;;;9.80;7.05;;;;;;;6.93;87.56;101174.28;6497565;23;20004;-81
2022/05/31 01:46:09;;;;;;;9.70;6.40;;;;;;;6.88;87.57;101175.97;6496344;23;20004;-81
2022/05/31 01:48:42;;;;;;;9.93;6.60;;;;;;;6.84;87.28;101174.22;6315690;23;20041;-81
2022/05/31 01:51:14;;;;;;;9.27;6.70;;;;;;;6.89;87.55;101182.00;6342250;23;20022;-78
2022/05/31 01:53:46;;;;;;;9.00;6.50;;;;;;;6.85;87.71;101180.25;6347751;23;20018;-82
2022/05/31 01:56:18;;;;;;;8.02;6.13;;;;;;;6.89;87.80;101174.22;6347531;23;20014;-81
2022/05/31 01:58:52;;;;;;;10.90;7.00;;;;;;;6.91;88.24;101180.31;6349288;23;20006;-80
2022/05/31 02:01:25;;;;;;;8.45;6.13;;;;;;;6.93;88.39;101178.59;6347200;23;20030;-82
2022/05/31 02:04:00;;;;;;;9.20;6.88;;;;;;;6.93;88.60;101176.00;6347784;23;20014;-80
2022/05/31 02:06:34;;;;;;;17.17;9.40;;;;;;;6.98;88.83;101176.03;6346053;23;20053;-81
2022/05/31 02:09:10;;;;;;;10.18;7.82;;;;;;;6.98;88.80;101171.72;6348692;23;20065;-80
2022/05/31 02:11:41;;;;;;;11.98;7.85;;;;;;;7.02;88.78;101173.50;6347793;23;20496;-78
2022/05/31 02:14:13;;;;;;;8.43;6.80;;;;;;;7.09;88.11;101172.66;6349187;23;20054;-79
2022/05/31 02:16:53;;;;;;;11.70;7.10;;;;;;;7.15;88.69;101170.97;6349630;23;20018;-81
2022/05/31 02:19:28;;;;;;;8.00;6.63;;;;;;;7.17;87.99;101164.97;6346057;23;20014;-82
2022/05/31 02:22:02;;;;;;;9.40;6.43;;;;;;;7.20;87.71;101166.72;6347158;23;20069;-81
2022/05/31 02:24:34;;;;;;;12.88;6.88;;;;;;;7.22;87.95;101167.59;6448912;23;20040;-79
2022/05/31 02:27:07;;;;;;;8.98;6.80;;;;;;;7.32;87.79;101161.59;6475031;23;20015;-81
2022/05/31 02:29:39;;;;;;;9.05;6.43;;;;;;;7.29;87.66;101161.56;6503669;23;20090;-78
2022/05/31 02:32:14;;;;;;;10.25;6.93;;;;;;;7.38;87.25;101161.63;6503624;23;20000;-80
2022/05/31 02:34:48;;;;;;;10.98;6.38;;;;;;;7.39;87.07;101158.19;6501894;23;20004;-79
2022/05/31 02:37:21;;;;;;;10.63;6.65;;;;;;;7.42;87.29;101154.75;6497059;23;20175;-80
2022/05/31 02:39:53;;;;;;;10.55;6.82;;;;;;;7.46;86.83;101159.09;6496763;23;20362;-80
2022/05/31 02:42:24;;;;;;;11.07;5.83;;;;;;;7.51;87.36;101152.22;6496855;23;20015;-81
2022/05/31 02:44:56;;;;;;;11.23;6.83;;;;;;;7.51;87.09;101152.22;6496624;23;20004;-82
2022/05/31 02:47:27;;;;;;;12.90;6.63;;;;;;;7.52;87.39;101148.78;6498456;23;20295;-80
2022/05/31 02:49:58;;;;;;;11.43;7.63;;;;;;;7.52;87.26;101161.75;6498929;23;20008;-79
2022/05/31 02:52:32;;;;;;;11.13;7.20;;;;;;;7.56;87.00;101158.28;6497859;23;20040;-83
2022/05/31 02:55:04;;;;;;;10.65;6.88;;;;;;;7.52;87.41;101153.97;6500756;23;20004;-84
2022/05/31 02:57:35;;;;;;;8.50;6.67;;;;;;;7.57;87.17;101153.97;6501453;23;20008;-83
2022/05/31 03:00:08;;;;;;;11.30;7.17;;;;;;;7.50;86.95;101153.06;6500031;23;20235;-82
2022/05/31 03:02:40;;;;;;;11.27;7.05;;;;;;;7.53;86.80;101144.44;6499263;23;20495;-83
2022/05/31 03:05:12;;;;;;;9.43;6.80;;;;;;;7.53;87.41;101147.88;6499643;23;20326;-80
2022/05/31 03:07:44;;;;;;;9.27;6.40;;;;;;;7.50;86.91;101140.09;6499908;23;20020;-78
2022/05/31 03:10:15;;;;;;;11.27;6.70;;;;;;;7.50;86.97;101150.47;6499229;23;20011;-80
2022/05/31 03:12:49;;;;;;;10.70;7.20;;;;;;;7.47;86.97;101143.53;6499119;23;20442;-77
2022/05/31 03:15:24;;;;;;;10.38;6.65;;;;;;;7.53;87.68;101147.88;6498606;23;20007;-82
2022/05/31 03:18:07;;;;;;;8.93;6.10;;;;;;;7.47;87.28;101146.16;6498424;23;20004;-79
2022/05/31 03:20:46;;;;;;;10.27;6.35;;;;;;;7.50;87.47;101145.28;6498041;23;20039;-82
2022/05/31 03:23:23;;;;;;;9.48;6.43;;;;;;;7.42;86.90;101142.66;6498502;23;20035;-83
2022/05/31 03:25:58;;;;;;;11.02;7.20;;;;;;;7.51;87.43;101138.38;6499143;23;20008;-83
2022/05/31 03:28:33;;;;;;;8.45;6.47;;;;;;;7.57;88.03;101139.28;6499248;23;20035;-77
2022/05/31 03:31:05;;;;;;;11.52;6.32;;;;;;;7.60;87.79;101139.28;6498413;23;20004;-80
2022/05/31 03:33:37;;;;;;;8.57;5.88;;;;;;;7.62;87.55;101140.16;6499120;23;20414;-82
2022/05/31 03:36:08;;;;;;;12.80;7.10;;;;;;;7.70;88.21;101137.59;6499182;23;20008;-83
2022/05/31 03:38:40;;;;;;;9.60;6.67;;;;;;;7.66;87.68;101134.16;6498562;23;20047;-82
2022/05/31 03:41:11;;;;;;;10.30;6.63;;;;;;;7.65;87.56;101141.91;6500027;23;20364;-83
2022/05/31 03:43:43;;;;;;;9.47;6.47;;;;;;;7.74;88.52;101134.16;6498155;23;20015;-82
2022/05/31 03:46:16;;;;;;;8.77;6.77;;;;;;;7.71;87.89;101143.66;6498782;23;20026;-79
2022/05/31 03:48:48;;;;;;;14.38;6.60;;;;;;;7.75;87.94;101135.03;6471563;23;20019;-83
2022/05/31 03:51:19;;;;;;;11.47;6.50;;;;;;;7.64;86.97;101135.84;6499357;23;20012;-83
2022/05/31 03:53:50;;;;;;;12.40;6.70;;;;;;;7.69;86.97;101128.06;6503695;23;20050;-83
2022/05/31 03:56:22;;;;;;;11.20;6.90;;;;;;;7.71;87.32;101134.16;6472907;23;20111;-84
2022/05/31 03:58:53;;;;;;;12.03;6.90;;;;;;;7.72;87.80;101138.47;6472291;23;20008;-82
2022/05/31 04:01:24;;;;;;;11.67;7.40;;;;;;;7.72;87.12;101135.03;6499782;23;20019;-83
2022/05/31 04:03:56;;;;;;;8.77;6.77;;;;;;;7.76;87.29;101132.44;6473646;23;20056;-83
2022/05/31 04:06:28;;;;;;;12.87;7.20;;;;;;;7.84;87.97;101135.94;6499521;23;19996;-82
2022/05/31 04:08:59;;;;;;;18.00;6.60;;;;;;;7.81;87.79;101135.06;6500862;23;20244;-83
2022/05/31 04:11:31;;;;;;;10.93;6.30;;;;;;;7.80;86.76;101138.50;6499425;23;20058;-84
2022/05/31 04:14:02;;;;;;;9.40;6.40;;;;;;;7.85;86.76;101136.81;6499231;23;20525;-80
2022/05/31 04:16:35;;;;;;;10.87;6.53;;;;;;;7.91;86.96;101130.78;6501108;23;20019;-83
2022/05/31 04:19:07;;;;;;;9.82;6.97;;;;;;;7.98;87.49;101135.13;6473347;23;20012;-85
2022/05/31 04:21:38;;;;;;;10.80;6.57;;;;;;;8.02;87.44;101140.34;6501031;23;20004;-84
2022/05/31 04:24:12;;;;;;;15.57;7.07;;;;;;;8.10;87.41;101135.16;6500846;23;20004;-86
2022/05/31 04:26:48;;;;;;;9.05;6.60;;;;;;;8.10;86.95;101132.56;6502232;23;19996;-80
2022/05/31 04:29:20;;;;;;;11.77;6.88;;;;;;;8.10;86.05;101134.28;6500528;23;20145;-84
2022/05/31 04:31:51;;;;;;;10.27;6.67;;;;;;;8.09;85.86;101128.22;6499790;23;20008;-81
2022/05/31 04:34:22;;;;;;;13.23;7.57;;;;;;;8.17;86.23;101131.72;6500083;23;20082;-85
2022/05/31 04:36:54;;;;;;;16.40;8.50;;;;;;;8.19;85.95;101132.59;6501103;23;20008;-83
2022/05/31 04:39:25;;;;;;;9.50;6.93;;;;;;;8.17;85.61;101130.84;6500982;23;20008;-84
2022/05/31 04:41:56;;;;;;;13.77;7.80;;;;;;;8.27;85.78;101137.78;6501557;23;20003;-82
2022/05/31 04:44:28;;;;;;;11.10;7.17;;;;;;;8.25;85.46;101129.16;6500263;23;20011;-85
2022/05/31 04:46:59;;;;;;;9.07;6.60;;;;;;;8.26;85.59;101138.69;6503285;23;20018;-85
2022/05/31 04:49:31;;;;;;;9.80;7.20;;;;;;;8.22;85.70;101132.59;6500477;23;20011;-85
2022/05/31 04:52:03;;;;;;;13.25;8.00;;;;;;;8.26;85.89;101130.88;6499297;23;20024;-85
2022/05/31 04:54:34;;;;;;;13.77;7.63;;;;;;;8.32;85.68;101125.72;6500868;23;20000;-81
2022/05/31 04:57:06;;;;;;;10.23;7.07;;;;;;;8.43;85.90;101125.75;6504086;23;20014;-86
2022/05/31 04:59:38;;;;;;;11.90;7.68;;;;;;;8.49;84.94;101124.91;6476667;23;20015;-88
2022/05/31 05:02:10;;;;;;;12.27;7.90;;;;;;;8.69;85.51;101130.09;6503446;23;20008;-87
2022/05/31 05:04:41;;;;;;;9.65;7.57;;;;;;;8.72;84.66;101127.50;6503412;23;20011;-85
2022/05/31 05:07:13;;;;;;;13.87;7.73;;;;;;;8.84;84.67;101130.13;6503529;23;20008;-84
2022/05/31 05:09:44;;;;;;;10.33;7.90;;;;;;;8.86;84.51;101130.13;6503661;23;20329;-86
2022/05/31 05:12:15;;;;;;;16.40;7.97;;;;;;;9.00;84.96;101127.50;6477584;23;20011;-87
2022/05/31 05:14:47;;;;;;;16.13;7.97;;;;;;;9.01;83.87;101124.03;6505920;23;20004;-87
2022/05/31 05:17:19;;;;;;;13.32;8.73;;;;;;;9.08;83.32;101120.53;6504328;23;20004;-87
2022/05/31 05:19:50;;;;;;;12.23;8.43;;;;;;;9.13;83.02;101117.09;6503910;23;20445;-87
2022/05/31 05:22:22;;;;;;;11.70;7.83;;;;;;;9.20;82.98;101127.50;6509186;23;20011;-84
2022/05/31 05:24:53;;;;;;;12.77;8.47;;;;;;;9.23;82.88;101122.28;6517506;23;20022;-86
2022/05/31 05:27:24;;;;;;;11.53;7.27;;;;;;;9.33;82.30;101117.94;6489164;23;20023;-85
2022/05/31 05:32:46;;;;;;;10.55;7.95;;;;;;;9.56;84.25;101125.66;6516776;23;20016;-84
2022/05/31 05:35:17;;;;;;;13.23;8.13;;;;;;;9.63;82.57;101127.38;6488607;23;20004;-86
2022/05/31 05:37:49;;;;;;;10.80;9.03;;;;;;;9.60;82.15;101124.78;6513755;23;20004;-84
2022/05/31 05:40:20;;;;;;;13.20;8.07;;;;;;;9.65;81.78;101123.03;6516903;23;20008;-85
2022/05/31 05:42:51;;;;;;;10.97;8.57;;;;;;;9.72;81.94;101113.47;6516481;23;20000;-86
2022/05/31 05:45:23;;;;;;;11.37;8.83;;;;;;;9.72;82.31;101103.03;6517130;23;20058;-81
2022/05/31 05:47:55;;;;;;;12.25;8.52;;;;;;;9.73;81.61;101105.63;6515814;23;20025;-87
2022/05/31 05:50:26;;;;;;;11.70;8.50;;;;;;;9.79;81.96;101118.63;6510634;23;20004;-88
2022/05/31 05:53:01;;;;;;;11.87;8.00;;;;;;;9.82;81.99;101116.03;6507518;23;20389;-88
2022/05/31 05:55:37;;;;;;;14.43;8.63;;;;;;;9.77;81.08;101120.38;6503412;23;20467;-86
2022/05/31 05:58:09;;;;;;;11.48;8.80;;;;;;;9.77;81.76;101117.78;6504323;23;20007;-84
2022/05/31 06:00:47;;;;;;;15.03;9.13;;;;;;;9.76;81.89;101123.00;6504740;23;20304;-87
2022/05/31 06:03:24;;;;;;;16.25;9.35;;;;;;;9.67;82.84;101121.28;6504106;23;20111;-87
2022/05/31 06:05:56;;;;;;;12.43;8.32;;;;;;;9.61;83.34;101118.69;6502808;23;20330;-88
2022/05/31 06:08:30;;;;;;;15.17;9.73;;;;;;;9.64;83.80;101121.28;6503919;23;20004;-86
2022/05/31 06:11:07;;;;;;;18.58;9.27;;;;;;;9.62;83.79;101120.44;6504381;23;20011;-84
2022/05/31 06:13:49;;;;;;;14.77;9.98;;;;;;;9.66;84.38;101119.56;6504459;23;20004;-86
2022/05/31 06:16:24;;;;;;;12.95;9.88;;;;;;;9.74;83.15;101122.13;6504153;23;20080;-85
2022/05/31 06:19:01;;;;;;;18.92;10.18;;;;;;;9.77;83.32;101111.69;6476606;23;20008;-84
2022/05/31 06:21:33;;;;;;;13.43;9.32;;;;;;;9.92;84.07;101109.03;6502570;23;20008;-86
2022/05/31 06:24:04;;;;;;;13.63;10.37;;;;;;;10.00;83.54;101103.78;6475501;23;20134;-87
2022/05/31 06:26:35;;;;;;;18.33;10.23;;;;;;;10.13;82.91;101115.00;6505577;23;20000;-86
2022/05/31 06:29:07;;;;;;;13.47;10.07;;;;;;;10.31;82.89;101117.50;6496549;23;20151;-84
2022/05/31 06:31:39;;;;;;;13.73;10.43;;;;;;;10.58;82.85;101108.66;6501045;23;20011;-86
2022/05/31 06:34:10;;;;;;;14.60;10.07;;;;;;;10.77;82.14;101118.94;6499243;23;20091;-85
2022/05/31 06:36:41;;;;;;;14.00;9.50;;;;;;;10.92;81.50;101126.63;6471880;23;20012;-86
2022/05/31 06:39:47;;;;;;;13.53;9.63;;;;;;;10.97;80.61;101123.13;6498824;23;20011;-86
2022/05/31 06:42:18;;;;;;;15.65;10.48;;;;;;;11.00;80.32;101126.56;6500995;23;20101;-86
2022/05/31 06:44:50;;;;;;;16.97;9.80;;;;;;;11.14;79.61;101123.84;6503639;23;20008;-85
2022/05/31 06:47:21;;;;;;;15.40;10.00;;;;;;;11.20;79.04;101123.75;6507567;23;20315;-83
2022/05/31 06:49:53;;;;;;;14.80;10.07;;;;;;;11.30;75.64;101125.41;6509550;23;20060;-85
2022/05/31 06:58:05;;;;;;;12.85;9.38;;;;;;;11.36;76.14;101121.84;6506091;23;20016;-81
2022/05/31 07:00:36;;;;;;;15.07;9.73;;;;;;;11.44;75.36;101124.38;6476894;23;20326;-86
2022/05/31 07:03:07;;;;;;;12.17;8.33;;;;;;;11.61;73.63;101122.44;6501386;23;20000;-85
2022/05/31 07:05:40;;;;;;;13.43;7.60;;;;;;;11.83;71.83;101122.19;6503040;23;20043;-86
2022/05/31 07:08:11;;;;;;;10.00;8.65;;;;;;;12.07;72.02;101121.03;6501741;23;20018;-85
2022/05/31 07:10:43;;;;;;;13.00;7.57;;;;;;;12.29;68.45;101125.97;6473830;23;20015;-85
2022/05/31 07:13:14;;;;;;;10.83;7.80;;;;;;;12.63;69.29;101125.44;6500686;23;20004;-85
2022/05/31 07:15:46;;;;;;;10.90;6.87;;;;;;;12.90;65.92;101124.13;6501942;23;20008;-86
2022/05/31 07:18:18;;;;;;;13.43;7.70;;;;;;;13.16;66.74;101123.69;6500784;23;20011;-83
2022/05/31 07:20:50;;;;;;;9.25;7.15;;;;;;;13.42;66.18;101117.97;6499880;23;20000;-85
2022/05/31 07:23:22;;;;;;;19.05;7.55;;;;;;;13.67;63.96;101120.13;6499961;23;20075;-87
2022/05/31 07:25:53;;;;;;;13.97;8.20;;;;;;;13.85;63.83;101116.25;6501879;23;20027;-85
2022/05/31 07:28:28;;;;;;;10.47;7.10;;;;;;;13.87;63.73;101106.59;6498971;23;20420;-86
2022/05/31 07:31:00;;;;;;;14.18;8.50;;;;;;;13.86;62.64;101103.13;6500039;23;20004;-84
2022/05/31 07:33:31;;;;;;;14.23;7.75;;;;;;;13.89;63.22;101112.66;6502621;23;20054;-86
2022/05/31 07:36:04;;;;;;;11.90;8.13;;;;;;;13.85;62.27;101106.63;6502390;23;20008;-85
2022/05/31 07:38:37;;;;;;;13.02;6.97;;;;;;;13.89;62.06;101119.66;6503280;23;20438;-86
2022/05/31 07:41:09;;;;;;;;;;;;;;;14.16;62.79;101124.31;6500236;23;20484;-87
2022/05/31 07:43:40;;;;;;;9.32;6.13;;;;;;;14.12;62.57;101112.19;6502971;23;19922;-85
2022/05/31 07:46:13;;;;;;;8.03;6.43;;;;;;;14.24;62.18;101113.66;6451268;23;20004;-86
2022/05/31 07:48:44;;;;;;;10.07;5.90;;;;;;;14.51;61.36;101108.69;6504768;23;20066;-86
2022/05/31 07:51:16;;;;;;;10.47;6.60;;;;;;;14.58;61.12;101105.00;6502128;23;20020;-81
2022/05/31 07:53:47;;;;;;;7.77;6.57;;;;;;;14.67;61.28;101101.34;6505873;23;19988;-86
2022/05/31 07:56:20;;;;;;;11.13;6.37;;;;;;;14.90;60.81;101100.75;6501353;23;20008;-87
2022/05/31 07:58:51;;;;;;;8.43;5.63;;;;;;;14.90;58.77;101098.97;6501320;23;20026;-87
2022/05/31 08:01:25;;;;;;;11.50;6.30;;;;;;;14.98;60.14;101103.16;6503125;23;20000;-87
2022/05/31 08:03:58;;;;;;;9.57;6.57;;;;;;;14.89;59.33;101102.50;6513762;23;20004;-87
2022/05/31 08:06:32;;;;;;;8.80;5.93;;;;;;;14.84;58.66;101100.88;6503573;23;20003;-86
2022/05/31 08:09:04;;;;;;;7.55;5.55;;;;;;;14.87;59.22;101101.66;6505351;23;20414;-87
2022/05/31 08:11:43;;;;;;;7.07;6.03;;;;;;;15.12;59.27;101095.78;6503299;23;20440;-87
2022/05/31 08:14:14;;;;;;;9.05;6.55;;;;;;;15.21;59.66;101094.69;6504040;23;20012;-87
2022/05/31 08:16:46;;;;;;;10.30;6.20;;;;;;;15.41;58.93;101097.63;6505706;23;20014;-86
2022/05/31 08:19:17;;;;;;;12.17;6.97;;;;;;;15.40;57.57;101081.91;6506376;23;20000;-86
2022/05/31 08:21:50;;;;;;;8.55;5.63;;;;;;;15.47;57.32;101086.94;6506988;23;20007;-87
2022/05/31 08:24:23;;;;;;;8.30;5.95;;;;;;;15.46;57.37;101085.22;6515688;23;20015;-86
2022/05/31 08:26:55;;;;;;;10.30;6.22;;;;;;;15.58;58.08;101080.50;6518033;23;20000;-85
2022/05/31 08:29:28;;;;;;;12.23;7.13;;;;;;;15.76;58.47;101081.72;6514804;22;20015;-85
2022/05/31 08:31:59;;;;;;;8.25;6.28;;;;;;;15.96;57.07;101084.66;6516903;23;20196;-82
2022/05/31 08:34:31;;;;;;;9.57;6.40;;;;;;;16.16;58.28;101080.56;6519638;23;20004;-82
2022/05/31 08:37:02;;;;;;;10.80;6.67;;;;;;;16.16;55.91;101078.78;6491856;22;20019;-83
2022/05/31 08:39:34;;;;;;;9.40;6.23;;;;;;;16.28;55.46;101082.81;6518693;23;20008;-80
2022/05/31 08:42:09;;;;;;;10.83;6.97;;;;;;;16.35;55.05;101081.69;6511402;23;20004;-83
2022/05/31 08:44:53;;;;;;;11.38;6.90;;;;;;;16.47;54.33;101090.09;6504471;23;20008;-84
2022/05/31 08:47:59;;;;;;;8.63;6.18;;;;;;;16.56;53.60;101077.50;6501188;23;20165;-86
2022/05/31 08:53:43;;;;;;;9.30;5.97;;;;;;;16.64;53.07;101082.50;6405497;23;20013;-82
2022/05/31 08:59:34;;;;;;;7.00;4.80;;;;;;;17.16;54.08;101074.59;6407104;23;20088;-84
2022/05/31 09:02:21;;;;;;;8.30;5.65;;;;;;;16.82;51.93;101086.28;6403987;23;20021;-83
2022/05/31 09:05:29;;;;;;;7.25;5.57;;;;;;;16.84;51.89;101092.38;6380036;23;20005;-85
2022/05/31 09:08:14;;;;;;;7.45;5.63;;;;;;;16.91;52.42;101083.38;6312110;23;20070;-84
2022/05/31 09:11:08;;;;;;;6.07;5.32;;;;;;;16.96;53.83;101077.97;6313060;23;20445;-84
2022/05/31 09:14:13;;;;;;;7.35;5.22;;;;;;;16.54;52.61;101078.47;6311461;23;20091;-85
2022/05/31 09:16:44;;;;;;;8.25;5.65;;;;;;;16.75;55.12;101084.78;6311553;23;20014;-83
2022/05/31 09:19:26;;;;;;;7.93;5.27;;;;;;;16.64;51.63;101071.97;6314646;23;20122;-83
2022/05/31 09:22:01;;;;;;;7.15;4.95;;;;;;;16.73;51.80;101084.84;6312607;23;20330;-85
2022/05/31 09:24:38;;;;;;;6.95;4.72;;;;;;;17.13;51.56;101082.66;6311670;23;20011;-84
2022/05/31 09:27:22;;;;;;;8.15;5.18;;;;;;;17.18;50.87;101079.81;6348664;23;20014;-84
2022/05/31 09:30:10;;;;;;;7.07;4.78;;;;;;;17.26;49.82;101077.81;6352706;23;20454;-80
2022/05/31 09:33:12;;;;;;;6.22;4.70;;;;;;;17.51;50.79;101072.47;6373038;23;20068;-82
2022/05/31 09:36:08;;;;;;;7.60;4.97;;;;;;;17.48;49.93;101078.75;6372561;23;20121;-86
2022/05/31 09:38:55;;;;;;;6.82;5.20;;;;;;;17.72;51.40;101077.88;6372179;23;20085;-83
2022/05/31 09:41:37;;;;;;;10.68;5.43;;;;;;;18.04;48.02;101079.28;6372781;23;20013;-85
2022/05/31 09:44:13;;;;;;;8.73;5.53;;;;;;;18.31;47.26;101074.69;6413535;23;20004;-85
2022/05/31 09:46:48;;;;;;;10.90;5.50;;;;;;;18.74;45.57;101078.19;6499917;23;20082;-86
2022/05/31 09:49:39;;;;;;;9.85;5.60;;;;;;;19.14;47.45;101070.34;6502272;23;20058;-85
2022/05/31 09:52:35;;;;;;;7.43;4.72;;;;;;;19.42;46.97;101069.13;6499912;23;20044;-83
2022/05/31 09:58:07;;;;;;;7.03;5.40;;;;;;;18.69;47.63;101064.34;6499346;23;20337;-84
2022/05/31 10:01:13;;;;;;;11.60;5.93;;;;;;;18.65;46.45;101067.16;6500293;23;20410;-84
2022/05/31 10:03:53;;;;;;;5.63;4.15;;;;;;;18.96;46.76;101064.09;6501017;23;20488;-82
2022/05/31 10:06:27;;;;;;;8.30;5.20;;;;;;;19.94;45.35;101056.16;6500956;23;20015;-83
2022/05/31 10:09:15;;;;;;;10.02;5.47;;;;;;;21.14;41.52;101062.56;6500524;23;20449;-86
2022/05/31 10:11:48;;;;;;;9.02;5.47;;;;;;;21.05;38.25;101060.41;6500213;23;20000;-85
2022/05/31 10:14:45;;;;;;;8.15;5.53;;;;;;;22.13;39.71;101057.22;6499459;23;20008;-84
2022/05/31 10:17:55;;;;;;;8.13;5.50;;;;;;;23.74;37.31;101056.47;6499654;23;20341;-84
2022/05/31 10:20:26;;;;;;;7.95;5.00;;;;;;;24.30;34.13;101059.94;6493325;23;20019;-80
2022/05/31 10:23:15;;;;;;;9.57;4.83;;;;;;;22.91;38.96;101057.97;6500587;23;20000;-86
2022/05/31 10:25:58;;;;;;;8.93;5.50;;;;;;;21.66;37.78;101059.78;6502158;23;20254;-87
2022/05/31 10:28:39;;;;;;;9.68;5.00;;;;;;;20.52;40.16;101064.81;6500293;23;20016;-83
2022/05/31 10:31:28;;;;;;;8.00;5.30;;;;;;;20.00;43.93;101066.44;6501968;23;20422;-87
2022/05/31 10:34:03;;;;;;;8.50;5.68;;;;;;;19.65;44.43;101062.78;6500055;23;20333;-85
2022/05/31 10:36:55;;;;;;;10.02;6.05;;;;;;;19.71;42.65;101061.66;6500828;23;20035;-87
2022/05/31 10:39:30;;;;;;;7.78;4.90;;;;;;;19.17;43.73;101059.66;6475458;23;20005;-87
2022/05/31 10:42:03;;;;;;;9.57;4.68;;;;;;;18.96;43.90;101056.16;6499882;23;20004;-87
2022/05/31 10:44:50;;;;;;;8.88;5.68;;;;;;;18.95;44.68;101052.69;6501096;23;20024;-85
2022/05/31 10:47:24;;;;;;;7.60;5.03;;;;;;;18.49;45.46;101051.94;6499134;23;20008;-86
2022/05/31 10:49:56;;;;;;;7.38;5.40;;;;;;;18.28;46.29;101053.69;6500434;23;20014;-85
2022/05/31 10:52:41;;;;;;;9.30;5.40;;;;;;;18.19;48.17;101052.31;6499377;23;20016;-85
2022/05/31 10:55:40;;;;;;;8.77;6.45;;;;;;;18.18;46.88;101050.56;6498791;23;20016;-85
2022/05/31 10:58:37;;;;;;;8.80;4.95;;;;;;;18.15;48.56;101055.13;6498983;23;20004;-85
2022/05/31 11:01:33;;;;;;;8.98;5.35;;;;;;;18.01;46.67;101059.16;6471764;23;20474;-86
2022/05/31 11:04:42;;;;;;;9.30;5.85;;;;;;;17.90;48.27;101050.81;6499562;23;20429;-87
2022/05/31 11:14:22;;;;;;;9.63;5.22;;;;;;;18.18;47.60;101055.84;6284377;23;20394;-85
2022/05/31 11:17:23;;;;;;;7.93;5.15;;;;;;;18.16;46.83;101057.72;6284184;23;20015;-84
2022/05/31 11:20:02;;;;;;;7.40;5.45;;;;;;;18.16;48.93;101047.16;6284251;23;20018;-86
2022/05/31 11:22:37;;;;;;;8.23;5.35;;;;;;;18.39;49.13;101056.75;6285416;23;20108;-85
2022/05/31 11:25:27;;;;;;;7.47;5.55;;;;;;;18.61;48.49;101057.66;6286406;23;20007;-86
2022/05/31 11:28:27;;;;;;;8.52;5.35;;;;;;;18.56;46.64;101063.13;6288454;23;20016;-85
2022/05/31 11:30:58;;;;;;;9.80;5.22;;;;;;;18.55;47.23;101061.41;6256402;23;20011;-85
2022/05/31 11:33:58;;;;;;;8.20;4.90;;;;;;;19.00;48.63;101065.69;6258016;23;20059;-86
2022/05/31 11:36:34;;;;;;;7.10;5.13;;;;;;;19.12;45.89;101059.84;6266770;23;20505;-83
2022/05/31 11:39:36;;;;;;;7.60;5.00;;;;;;;19.98;46.74;101062.16;6277848;23;19996;-85
2022/05/31 11:42:20;;;;;;;7.93;5.05;;;;;;;21.41;43.40;101062.91;6274767;23;20053;-85
2022/05/31 11:45:03;;;;;;;7.88;5.28;;;;;;;24.34;39.18;101069.44;6318771;23;20070;-85
2022/05/31 11:48:13;;;;;;;10.05;5.35;;;;;;;27.21;38.53;101062.19;6343990;23;20070;-86
2022/05/31 11:51:01;;;;;;;3.60;2.65;;;;;;;26.56;31.27;101067.16;6343753;23;20006;-83
2022/05/31 11:53:59;;;;;;;4.68;2.78;;;;;;;24.77;30.13;101071.03;6343782;23;20069;-83
2022/05/31 11:56:43;;;;;;;3.53;2.42;;;;;;;23.01;30.82;101065.41;6346483;23;20563;-86
2022/05/31 11:59:31;;;;;;;4.53;1.90;;;;;;;21.87;34.24;101070.16;6346417;23;20017;-85
2022/05/31 12:02:28;;;;;;;4.28;2.13;;;;;;;21.74;35.07;101069.13;6348171;23;20010;-82
2022/05/31 12:05:16;;;;;;;2.72;2.10;;;;;;;21.43;33.29;101074.28;6343836;23;20444;-86
2022/05/31 12:07:56;;;;;;;6.45;2.08;;;;;;;21.17;32.52;101072.13;6363819;23;20017;-86
2022/05/31 12:10:32;;;;;;;3.72;2.17;;;;;;;21.16;33.34;101070.44;6373101;23;20453;-83
2022/05/31 12:13:10;;;;;;;4.78;2.30;;;;;;;21.17;33.03;101061.53;6374503;23;20042;-86
2022/05/31 12:15:44;;;;;;;4.97;2.53;;;;;;;21.44;35.10;101052.09;6374811;23;20381;-86
2022/05/31 12:18:41;;;;;;;3.25;2.22;;;;;;;22.73;36.59;101061.72;6349313;23;20498;-85
2022/05/31 12:21:29;;;;;;;3.55;2.15;;;;;;;22.36;30.67;101058.56;6373501;23;20044;-84
2022/05/31 12:24:16;;;;;;;4.75;1.90;;;;;;;24.70;31.63;101059.09;6374311;23;20040;-86
2022/05/31 12:26:52;;;;;;;6.07;2.38;;;;;;;25.97;33.64;101051.97;6350178;23;20048;-86
2022/05/31 12:29:38;;;;;;;4.90;2.70;;;;;;;27.91;26.78;101054.84;6373754;23;20010;-84
2022/05/31 12:32:41;;;;;;;5.10;3.45;;;;;;;27.65;26.01;101044.41;6373435;23;20069;-83
2022/05/31 12:35:30;;;;;;;;;;;;;;;28.31;24.88;101050.72;6373714;23;20081;-85
2022/05/31 12:38:02;;;;;;;3.88;3.00;;;;;;;25.99;27.99;101043.81;6373912;23;19964;-86